sensor_id;sensor_type;location;lat;lon;timestamp;P1;durP1;ratioP1;P2;durP2;ratioP2
74074;SDS011;62428;51.412;5.432;2023-09-08T00:00:39;6.53;;;4.75;;
74074;SDS011;62428;51.412;5.432;2023-09-08T00:03:05;6.90;;;4.63;;
74074;SDS011;62428;51.412;5.432;2023-09-08T00:05:30;9.63;;;5.30;;
74074;SDS011;62428;51.412;5.432;2023-09-08T00:07:55;8.83;;;4.70;;
74074;SDS011;62428;51.412;5.432;2023-09-08T00:10:21;6.70;;;4.90;;
74074;SDS011;62428;51.412;5.432;2023-09-08T00:12:46;7.20;;;5.03;;
74074;SDS011;62428;51.412;5.432;2023-09-08T00:15:11;7.63;;;4.87;;
74074;SDS011;62428;51.412;5.432;2023-09-08T00:17:37;8.25;;;4.68;;
74074;SDS011;62428;51.412;5.432;2023-09-08T00:20:03;8.33;;;4.73;;
74074;SDS011;62428;51.412;5.432;2023-09-08T00:22:35;6.22;;;4.55;;
74074;SDS011;62428;51.412;5.432;2023-09-08T00:25:02;7.90;;;5.00;;
74074;SDS011;62428;51.412;5.432;2023-09-08T00:27:28;7.27;;;4.90;;
74074;SDS011;62428;51.412;5.432;2023-09-08T00:29:54;7.45;;;5.13;;
74074;SDS011;62428;51.412;5.432;2023-09-08T00:32:20;7.50;;;4.80;;
74074;SDS011;62428;51.412;5.432;2023-09-08T00:34:45;10.70;;;5.40;;
74074;SDS011;62428;51.412;5.432;2023-09-08T00:37:10;8.17;;;5.60;;
74074;SDS011;62428;51.412;5.432;2023-09-08T00:39:37;13.20;;;5.35;;
74074;SDS011;62428;51.412;5.432;2023-09-08T00:42:03;9.63;;;4.83;;
74074;SDS011;62428;51.412;5.432;2023-09-08T00:44:28;7.25;;;5.18;;
74074;SDS011;62428;51.412;5.432;2023-09-08T00:46:54;5.87;;;4.83;;
74074;SDS011;62428;51.412;5.432;2023-09-08T00:49:19;9.17;;;4.90;;
74074;SDS011;62428;51.412;5.432;2023-09-08T00:51:45;7.90;;;5.07;;
74074;SDS011;62428;51.412;5.432;2023-09-08T00:54:11;7.63;;;5.07;;
74074;SDS011;62428;51.412;5.432;2023-09-08T00:56:36;7.88;;;5.45;;
74074;SDS011;62428;51.412;5.432;2023-09-08T00:59:03;8.50;;;5.20;;
74074;SDS011;62428;51.412;5.432;2023-09-08T01:01:29;8.38;;;5.03;;
74074;SDS011;62428;51.412;5.432;2023-09-08T01:03:55;6.40;;;5.03;;
74074;SDS011;62428;51.412;5.432;2023-09-08T01:06:23;8.38;;;5.38;;
74074;SDS011;62428;51.412;5.432;2023-09-08T01:08:49;8.07;;;5.40;;
74074;SDS011;62428;51.412;5.432;2023-09-08T01:11:16;8.15;;;5.47;;
74074;SDS011;62428;51.412;5.432;2023-09-08T01:13:44;9.40;;;5.25;;
74074;SDS011;62428;51.412;5.432;2023-09-08T01:16:09;8.67;;;5.20;;
74074;SDS011;62428;51.412;5.432;2023-09-08T01:18:34;7.70;;;4.67;;
74074;SDS011;62428;51.412;5.432;2023-09-08T01:26:58;8.98;;;5.30;;
74074;SDS011;62428;51.412;5.432;2023-09-08T01:29:24;9.02;;;5.00;;
74074;SDS011;62428;51.412;5.432;2023-09-08T01:31:51;12.27;;;4.67;;
74074;SDS011;62428;51.412;5.432;2023-09-08T01:34:17;7.10;;;5.30;;
74074;SDS011;62428;51.412;5.432;2023-09-08T01:36:44;8.85;;;5.20;;
74074;SDS011;62428;51.412;5.432;2023-09-08T01:39:10;9.32;;;5.22;;
74074;SDS011;62428;51.412;5.432;2023-09-08T01:41:35;6.80;;;5.27;;
74074;SDS011;62428;51.412;5.432;2023-09-08T01:44:01;9.87;;;5.33;;
74074;SDS011;62428;51.412;5.432;2023-09-08T01:46:32;9.32;;;4.90;;
74074;SDS011;62428;51.412;5.432;2023-09-08T01:48:58;9.90;;;5.30;;
74074;SDS011;62428;51.412;5.432;2023-09-08T01:51:24;10.33;;;5.80;;
74074;SDS011;62428;51.412;5.432;2023-09-08T01:53:49;10.23;;;5.43;;
74074;SDS011;62428;51.412;5.432;2023-09-08T01:56:14;6.80;;;5.47;;
74074;SDS011;62428;51.412;5.432;2023-09-08T01:58:40;8.43;;;5.50;;
74074;SDS011;62428;51.412;5.432;2023-09-08T02:01:05;9.13;;;5.60;;
74074;SDS011;62428;51.412;5.432;2023-09-08T02:03:31;8.80;;;5.97;;
74074;SDS011;62428;51.412;5.432;2023-09-08T02:05:57;8.13;;;5.03;;
74074;SDS011;62428;51.412;5.432;2023-09-08T02:08:22;11.47;;;5.67;;
74074;SDS011;62428;51.412;5.432;2023-09-08T02:10:48;8.40;;;5.33;;
74074;SDS011;62428;51.412;5.432;2023-09-08T02:13:13;7.93;;;5.40;;
74074;SDS011;62428;51.412;5.432;2023-09-08T02:15:38;9.43;;;5.63;;
74074;SDS011;62428;51.412;5.432;2023-09-08T02:18:04;7.63;;;5.47;;
74074;SDS011;62428;51.412;5.432;2023-09-08T02:20:32;10.13;;;5.95;;
74074;SDS011;62428;51.412;5.432;2023-09-08T02:22:58;9.13;;;5.78;;
74074;SDS011;62428;51.412;5.432;2023-09-08T02:25:28;10.13;;;5.80;;
74074;SDS011;62428;51.412;5.432;2023-09-08T02:27:53;8.90;;;5.90;;
74074;SDS011;62428;51.412;5.432;2023-09-08T02:30:19;8.23;;;6.07;;
74074;SDS011;62428;51.412;5.432;2023-09-08T02:32:44;7.30;;;5.30;;
74074;SDS011;62428;51.412;5.432;2023-09-08T02:35:10;7.68;;;5.50;;
74074;SDS011;62428;51.412;5.432;2023-09-08T02:37:36;7.43;;;5.55;;
74074;SDS011;62428;51.412;5.432;2023-09-08T02:40:01;7.83;;;5.57;;
74074;SDS011;62428;51.412;5.432;2023-09-08T02:42:27;10.70;;;5.17;;
74074;SDS011;62428;51.412;5.432;2023-09-08T02:44:52;6.35;;;5.20;;
74074;SDS011;62428;51.412;5.432;2023-09-08T02:47:17;6.97;;;4.50;;
74074;SDS011;62428;51.412;5.432;2023-09-08T02:49:43;8.50;;;5.20;;
74074;SDS011;62428;51.412;5.432;2023-09-08T02:52:08;8.60;;;5.40;;
74074;SDS011;62428;51.412;5.432;2023-09-08T02:54:34;9.73;;;5.00;;
74074;SDS011;62428;51.412;5.432;2023-09-08T02:56:59;8.38;;;4.40;;
74074;SDS011;62428;51.412;5.432;2023-09-08T02:59:25;6.73;;;4.93;;
74074;SDS011;62428;51.412;5.432;2023-09-08T03:01:50;6.97;;;4.97;;
74074;SDS011;62428;51.412;5.432;2023-09-08T03:04:15;9.03;;;4.63;;
74074;SDS011;62428;51.412;5.432;2023-09-08T03:06:41;8.70;;;5.10;;
74074;SDS011;62428;51.412;5.432;2023-09-08T03:09:06;8.90;;;5.40;;
74074;SDS011;62428;51.412;5.432;2023-09-08T03:11:32;6.55;;;4.75;;
74074;SDS011;62428;51.412;5.432;2023-09-08T03:13:57;8.40;;;5.13;;
74074;SDS011;62428;51.412;5.432;2023-09-08T03:16:22;9.77;;;5.00;;
74074;SDS011;62428;51.412;5.432;2023-09-08T03:18:48;8.57;;;5.37;;
74074;SDS011;62428;51.412;5.432;2023-09-08T03:21:13;9.53;;;5.70;;
74074;SDS011;62428;51.412;5.432;2023-09-08T03:23:42;8.85;;;5.60;;
74074;SDS011;62428;51.412;5.432;2023-09-08T03:26:09;7.93;;;5.40;;
74074;SDS011;62428;51.412;5.432;2023-09-08T03:28:35;8.03;;;5.43;;
74074;SDS011;62428;51.412;5.432;2023-09-08T03:31:01;8.80;;;4.95;;
74074;SDS011;62428;51.412;5.432;2023-09-08T03:33:27;10.40;;;5.40;;
74074;SDS011;62428;51.412;5.432;2023-09-08T03:35:53;10.20;;;5.27;;
74074;SDS011;62428;51.412;5.432;2023-09-08T03:38:18;7.73;;;5.70;;
74074;SDS011;62428;51.412;5.432;2023-09-08T03:40:44;8.98;;;5.40;;
74074;SDS011;62428;51.412;5.432;2023-09-08T03:43:09;8.53;;;5.30;;
74074;SDS011;62428;51.412;5.432;2023-09-08T03:45:34;6.30;;;4.80;;
74074;SDS011;62428;51.412;5.432;2023-09-08T03:48:00;8.60;;;5.40;;
74074;SDS011;62428;51.412;5.432;2023-09-08T03:50:25;10.00;;;5.53;;
74074;SDS011;62428;51.412;5.432;2023-09-08T03:52:51;8.30;;;4.90;;
74074;SDS011;62428;51.412;5.432;2023-09-08T03:55:16;9.00;;;5.67;;
74074;SDS011;62428;51.412;5.432;2023-09-08T03:57:42;9.33;;;6.03;;
74074;SDS011;62428;51.412;5.432;2023-09-08T04:00:08;9.60;;;6.22;;
74074;SDS011;62428;51.412;5.432;2023-09-08T04:02:35;9.90;;;6.00;;
74074;SDS011;62428;51.412;5.432;2023-09-08T04:05:01;10.63;;;6.00;;
74074;SDS011;62428;51.412;5.432;2023-09-08T04:07:27;10.07;;;6.53;;
74074;SDS011;62428;51.412;5.432;2023-09-08T04:09:52;9.97;;;6.50;;
74074;SDS011;62428;51.412;5.432;2023-09-08T04:12:17;7.75;;;5.60;;
74074;SDS011;62428;51.412;5.432;2023-09-08T04:14:43;8.30;;;5.87;;
74074;SDS011;62428;51.412;5.432;2023-09-08T04:17:08;9.57;;;6.20;;
74074;SDS011;62428;51.412;5.432;2023-09-08T04:19:33;10.30;;;5.93;;
74074;SDS011;62428;51.412;5.432;2023-09-08T04:21:59;8.60;;;5.93;;
74074;SDS011;62428;51.412;5.432;2023-09-08T04:24:24;15.67;;;5.90;;
74074;SDS011;62428;51.412;5.432;2023-09-08T04:26:49;10.50;;;5.97;;
74074;SDS011;62428;51.412;5.432;2023-09-08T04:29:15;9.48;;;6.40;;
74074;SDS011;62428;51.412;5.432;2023-09-08T04:31:40;10.85;;;7.18;;
74074;SDS011;62428;51.412;5.432;2023-09-08T04:34:05;9.23;;;6.43;;
74074;SDS011;62428;51.412;5.432;2023-09-08T04:36:31;8.87;;;5.50;;
74074;SDS011;62428;51.412;5.432;2023-09-08T04:38:56;9.40;;;6.07;;
74074;SDS011;62428;51.412;5.432;2023-09-08T04:41:21;9.37;;;5.70;;
74074;SDS011;62428;51.412;5.432;2023-09-08T04:43:47;11.63;;;6.67;;
74074;SDS011;62428;51.412;5.432;2023-09-08T04:46:12;8.27;;;5.80;;
74074;SDS011;62428;51.412;5.432;2023-09-08T04:48:38;9.07;;;5.82;;
74074;SDS011;62428;51.412;5.432;2023-09-08T04:51:03;9.23;;;6.07;;
74074;SDS011;62428;51.412;5.432;2023-09-08T04:53:28;8.87;;;5.47;;
74074;SDS011;62428;51.412;5.432;2023-09-08T04:55:54;9.47;;;6.70;;
74074;SDS011;62428;51.412;5.432;2023-09-08T04:58:19;10.13;;;6.20;;
74074;SDS011;62428;51.412;5.432;2023-09-08T05:00:44;10.60;;;6.78;;
74074;SDS011;62428;51.412;5.432;2023-09-08T05:03:10;9.23;;;6.03;;
74074;SDS011;62428;51.412;5.432;2023-09-08T05:05:35;11.30;;;6.23;;
74074;SDS011;62428;51.412;5.432;2023-09-08T05:08:00;9.03;;;6.40;;
74074;SDS011;62428;51.412;5.432;2023-09-08T05:10:26;10.73;;;7.03;;
74074;SDS011;62428;51.412;5.432;2023-09-08T05:12:51;10.20;;;6.77;;
74074;SDS011;62428;51.412;5.432;2023-09-08T05:15:17;10.02;;;6.90;;
74074;SDS011;62428;51.412;5.432;2023-09-08T05:17:45;11.43;;;6.10;;
74074;SDS011;62428;51.412;5.432;2023-09-08T05:20:11;10.45;;;6.50;;
74074;SDS011;62428;51.412;5.432;2023-09-08T05:22:36;11.33;;;6.50;;
74074;SDS011;62428;51.412;5.432;2023-09-08T05:25:02;9.40;;;7.13;;
74074;SDS011;62428;51.412;5.432;2023-09-08T05:27:28;11.18;;;7.20;;
74074;SDS011;62428;51.412;5.432;2023-09-08T05:29:53;14.97;;;7.80;;
74074;SDS011;62428;51.412;5.432;2023-09-08T05:32:19;13.05;;;7.80;;
74074;SDS011;62428;51.412;5.432;2023-09-08T05:34:44;12.03;;;7.10;;
74074;SDS011;62428;51.412;5.432;2023-09-08T05:37:10;11.03;;;6.77;;
74074;SDS011;62428;51.412;5.432;2023-09-08T05:39:35;14.13;;;8.10;;
74074;SDS011;62428;51.412;5.432;2023-09-08T05:42:00;11.73;;;7.70;;
74074;SDS011;62428;51.412;5.432;2023-09-08T05:44:26;15.27;;;7.32;;
74074;SDS011;62428;51.412;5.432;2023-09-08T05:46:51;12.17;;;6.87;;
74074;SDS011;62428;51.412;5.432;2023-09-08T05:49:17;9.93;;;7.00;;
74074;SDS011;62428;51.412;5.432;2023-09-08T05:51:43;14.43;;;7.55;;
74074;SDS011;62428;51.412;5.432;2023-09-08T05:54:08;13.97;;;6.73;;
74074;SDS011;62428;51.412;5.432;2023-09-08T05:56:36;9.63;;;6.25;;
74074;SDS011;62428;51.412;5.432;2023-09-08T05:59:05;11.35;;;7.45;;
74074;SDS011;62428;51.412;5.432;2023-09-08T06:01:30;12.38;;;8.02;;
74074;SDS011;62428;51.412;5.432;2023-09-08T06:03:56;12.55;;;7.88;;
74074;SDS011;62428;51.412;5.432;2023-09-08T06:06:21;12.40;;;7.43;;
74074;SDS011;62428;51.412;5.432;2023-09-08T06:08:47;12.65;;;7.25;;
74074;SDS011;62428;51.412;5.432;2023-09-08T06:11:13;12.17;;;7.27;;
74074;SDS011;62428;51.412;5.432;2023-09-08T06:13:38;12.13;;;7.10;;
74074;SDS011;62428;51.412;5.432;2023-09-08T06:16:04;13.77;;;7.53;;
74074;SDS011;62428;51.412;5.432;2023-09-08T06:18:29;15.97;;;8.43;;
74074;SDS011;62428;51.412;5.432;2023-09-08T06:21:04;13.52;;;8.27;;
74074;SDS011;62428;51.412;5.432;2023-09-08T06:23:29;17.23;;;7.60;;
74074;SDS011;62428;51.412;5.432;2023-09-08T06:25:58;12.00;;;7.43;;
74074;SDS011;62428;51.412;5.432;2023-09-08T06:28:25;12.95;;;7.40;;
74074;SDS011;62428;51.412;5.432;2023-09-08T06:30:50;13.97;;;7.60;;
74074;SDS011;62428;51.412;5.432;2023-09-08T06:33:16;13.00;;;7.60;;
74074;SDS011;62428;51.412;5.432;2023-09-08T06:35:41;15.55;;;7.72;;
74074;SDS011;62428;51.412;5.432;2023-09-08T06:38:06;10.73;;;7.33;;
74074;SDS011;62428;51.412;5.432;2023-09-08T06:40:32;14.67;;;7.50;;
74074;SDS011;62428;51.412;5.432;2023-09-08T06:42:57;16.40;;;7.30;;
74074;SDS011;62428;51.412;5.432;2023-09-08T06:45:23;11.93;;;7.50;;
74074;SDS011;62428;51.412;5.432;2023-09-08T06:47:48;16.38;;;8.00;;
74074;SDS011;62428;51.412;5.432;2023-09-08T06:50:15;14.00;;;7.07;;
74074;SDS011;62428;51.412;5.432;2023-09-08T06:52:40;15.40;;;7.10;;
74074;SDS011;62428;51.412;5.432;2023-09-08T06:55:06;13.70;;;7.50;;
74074;SDS011;62428;51.412;5.432;2023-09-08T06:57:32;12.18;;;6.97;;
74074;SDS011;62428;51.412;5.432;2023-09-08T06:59:57;12.03;;;7.23;;
74074;SDS011;62428;51.412;5.432;2023-09-08T07:02:23;9.67;;;6.97;;
74074;SDS011;62428;51.412;5.432;2023-09-08T07:04:48;10.73;;;7.20;;
74074;SDS011;62428;51.412;5.432;2023-09-08T07:07:14;15.87;;;7.63;;
74074;SDS011;62428;51.412;5.432;2023-09-08T07:09:39;11.13;;;7.17;;
74074;SDS011;62428;51.412;5.432;2023-09-08T07:12:05;13.60;;;7.67;;
74074;SDS011;62428;51.412;5.432;2023-09-08T07:14:32;12.43;;;7.38;;
74074;SDS011;62428;51.412;5.432;2023-09-08T07:16:57;13.80;;;8.05;;
74074;SDS011;62428;51.412;5.432;2023-09-08T07:19:23;13.00;;;6.60;;
74074;SDS011;62428;51.412;5.432;2023-09-08T07:21:48;12.13;;;7.17;;
74074;SDS011;62428;51.412;5.432;2023-09-08T07:24:14;12.00;;;6.60;;
74074;SDS011;62428;51.412;5.432;2023-09-08T07:26:39;10.83;;;6.47;;
74074;SDS011;62428;51.412;5.432;2023-09-08T07:29:04;11.32;;;6.68;;
74074;SDS011;62428;51.412;5.432;2023-09-08T07:31:30;12.10;;;6.53;;
74074;SDS011;62428;51.412;5.432;2023-09-08T07:33:55;9.47;;;6.10;;
74074;SDS011;62428;51.412;5.432;2023-09-08T07:36:20;10.33;;;6.37;;
74074;SDS011;62428;51.412;5.432;2023-09-08T07:38:46;13.20;;;6.77;;
74074;SDS011;62428;51.412;5.432;2023-09-08T07:41:11;10.07;;;6.57;;
74074;SDS011;62428;51.412;5.432;2023-09-08T07:43:37;11.13;;;7.00;;
74074;SDS011;62428;51.412;5.432;2023-09-08T07:46:05;12.70;;;6.75;;
74074;SDS011;62428;51.412;5.432;2023-09-08T07:48:31;10.57;;;6.68;;
74074;SDS011;62428;51.412;5.432;2023-09-08T07:50:57;11.63;;;6.17;;
74074;SDS011;62428;51.412;5.432;2023-09-08T07:53:25;13.52;;;6.32;;
74074;SDS011;62428;51.412;5.432;2023-09-08T07:55:51;8.47;;;5.53;;
74074;SDS011;62428;51.412;5.432;2023-09-08T07:58:16;10.18;;;5.57;;
74074;SDS011;62428;51.412;5.432;2023-09-08T08:00:42;10.07;;;5.50;;
74074;SDS011;62428;51.412;5.432;2023-09-08T08:03:07;7.33;;;5.83;;
74074;SDS011;62428;51.412;5.432;2023-09-08T08:05:33;9.98;;;6.00;;
74074;SDS011;62428;51.412;5.432;2023-09-08T08:07:59;9.73;;;6.03;;
74074;SDS011;62428;51.412;5.432;2023-09-08T08:10:24;6.97;;;5.57;;
74074;SDS011;62428;51.412;5.432;2023-09-08T08:12:49;9.00;;;5.35;;
74074;SDS011;62428;51.412;5.432;2023-09-08T08:15:15;9.23;;;5.67;;
74074;SDS011;62428;51.412;5.432;2023-09-08T08:17:40;7.20;;;5.50;;
74074;SDS011;62428;51.412;5.432;2023-09-08T08:20:06;11.40;;;5.13;;
74074;SDS011;62428;51.412;5.432;2023-09-08T08:22:34;6.30;;;5.28;;
74074;SDS011;62428;51.412;5.432;2023-09-08T08:24:59;8.53;;;5.50;;
74074;SDS011;62428;51.412;5.432;2023-09-08T08:27:25;11.27;;;6.27;;
74074;SDS011;62428;51.412;5.432;2023-09-08T08:29:50;10.70;;;5.53;;
74074;SDS011;62428;51.412;5.432;2023-09-08T08:32:16;8.03;;;5.63;;
74074;SDS011;62428;51.412;5.432;2023-09-08T08:34:41;7.30;;;4.85;;
74074;SDS011;62428;51.412;5.432;2023-09-08T08:37:07;7.97;;;5.20;;
74074;SDS011;62428;51.412;5.432;2023-09-08T08:39:32;9.43;;;6.53;;
74074;SDS011;62428;51.412;5.432;2023-09-08T08:41:59;8.57;;;5.20;;
74074;SDS011;62428;51.412;5.432;2023-09-08T08:44:31;11.25;;;5.55;;
74074;SDS011;62428;51.412;5.432;2023-09-08T08:46:57;8.73;;;4.95;;
74074;SDS011;62428;51.412;5.432;2023-09-08T08:49:25;7.70;;;5.35;;
74074;SDS011;62428;51.412;5.432;2023-09-08T08:51:52;9.53;;;5.50;;
74074;SDS011;62428;51.412;5.432;2023-09-08T08:54:19;8.27;;;5.45;;
74074;SDS011;62428;51.412;5.432;2023-09-08T08:56:44;8.57;;;5.50;;
74074;SDS011;62428;51.412;5.432;2023-09-08T08:59:10;10.83;;;5.40;;
74074;SDS011;62428;51.412;5.432;2023-09-08T09:01:36;7.07;;;4.75;;
74074;SDS011;62428;51.412;5.432;2023-09-08T09:04:05;7.97;;;4.95;;
74074;SDS011;62428;51.412;5.432;2023-09-08T09:06:31;6.43;;;4.60;;
74074;SDS011;62428;51.412;5.432;2023-09-08T09:08:57;6.72;;;4.75;;
74074;SDS011;62428;51.412;5.432;2023-09-08T09:11:24;9.60;;;5.55;;
74074;SDS011;62428;51.412;5.432;2023-09-08T09:13:50;8.02;;;5.38;;
74074;SDS011;62428;51.412;5.432;2023-09-08T09:16:15;5.47;;;4.63;;
74074;SDS011;62428;51.412;5.432;2023-09-08T09:18:59;9.87;;;5.67;;
74074;SDS011;62428;51.412;5.432;2023-09-08T09:21:41;6.40;;;4.95;;
74074;SDS011;62428;51.412;5.432;2023-09-08T09:24:10;6.57;;;5.17;;
74074;SDS011;62428;51.412;5.432;2023-09-08T09:26:58;8.05;;;4.85;;
74074;SDS011;62428;51.412;5.432;2023-09-08T09:29:23;7.40;;;4.75;;
74074;SDS011;62428;51.412;5.432;2023-09-08T09:32:02;7.13;;;4.90;;
74074;SDS011;62428;51.412;5.432;2023-09-08T09:34:31;9.60;;;5.45;;
74074;SDS011;62428;51.412;5.432;2023-09-08T09:36:57;11.90;;;5.37;;
74074;SDS011;62428;51.412;5.432;2023-09-08T09:39:23;9.95;;;5.28;;
74074;SDS011;62428;51.412;5.432;2023-09-08T09:41:53;7.95;;;4.75;;
74074;SDS011;62428;51.412;5.432;2023-09-08T09:44:19;12.47;;;5.83;;
74074;SDS011;62428;51.412;5.432;2023-09-08T09:46:46;6.15;;;5.03;;
74074;SDS011;62428;51.412;5.432;2023-09-08T09:49:12;9.73;;;5.00;;
74074;SDS011;62428;51.412;5.432;2023-09-08T09:51:44;8.60;;;5.53;;
74074;SDS011;62428;51.412;5.432;2023-09-08T09:54:10;7.15;;;5.32;;
74074;SDS011;62428;51.412;5.432;2023-09-08T09:56:37;8.00;;;5.07;;
74074;SDS011;62428;51.412;5.432;2023-09-08T09:59:03;10.63;;;5.15;;
74074;SDS011;62428;51.412;5.432;2023-09-08T10:01:29;7.57;;;5.30;;
74074;SDS011;62428;51.412;5.432;2023-09-08T10:03:56;6.73;;;5.17;;
74074;SDS011;62428;51.412;5.432;2023-09-08T10:06:22;9.60;;;5.15;;
74074;SDS011;62428;51.412;5.432;2023-09-08T10:08:48;9.02;;;5.50;;
74074;SDS011;62428;51.412;5.432;2023-09-08T10:11:16;8.23;;;5.10;;
74074;SDS011;62428;51.412;5.432;2023-09-08T10:13:46;11.80;;;5.30;;
74074;SDS011;62428;51.412;5.432;2023-09-08T10:16:16;13.57;;;5.47;;
74074;SDS011;62428;51.412;5.432;2023-09-08T10:18:45;9.05;;;5.10;;
74074;SDS011;62428;51.412;5.432;2023-09-08T10:21:12;6.95;;;4.57;;
74074;SDS011;62428;51.412;5.432;2023-09-08T10:23:40;7.38;;;5.32;;
74074;SDS011;62428;51.412;5.432;2023-09-08T10:26:09;7.28;;;5.30;;
74074;SDS011;62428;51.412;5.432;2023-09-08T10:28:36;10.07;;;5.43;;
74074;SDS011;62428;51.412;5.432;2023-09-08T10:31:02;6.05;;;5.07;;
74074;SDS011;62428;51.412;5.432;2023-09-08T10:33:29;6.80;;;4.70;;
74074;SDS011;62428;51.412;5.432;2023-09-08T10:35:56;6.35;;;5.43;;
74074;SDS011;62428;51.412;5.432;2023-09-08T10:38:27;7.68;;;5.13;;
74074;SDS011;62428;51.412;5.432;2023-09-08T10:41:17;8.30;;;4.97;;
74074;SDS011;62428;51.412;5.432;2023-09-08T10:43:57;6.95;;;5.32;;
74074;SDS011;62428;51.412;5.432;2023-09-08T10:46:27;6.55;;;5.40;;
74074;SDS011;62428;51.412;5.432;2023-09-08T10:48:53;6.38;;;4.82;;
74074;SDS011;62428;51.412;5.432;2023-09-08T10:51:20;7.65;;;5.60;;
74074;SDS011;62428;51.412;5.432;2023-09-08T10:53:48;7.77;;;4.87;;
74074;SDS011;62428;51.412;5.432;2023-09-08T10:56:16;6.85;;;5.10;;
74074;SDS011;62428;51.412;5.432;2023-09-08T10:58:43;7.50;;;5.65;;
74074;SDS011;62428;51.412;5.432;2023-09-08T11:01:13;10.05;;;5.97;;
74074;SDS011;62428;51.412;5.432;2023-09-08T11:06:07;7.33;;;5.67;;
74074;SDS011;62428;51.412;5.432;2023-09-08T11:08:37;6.33;;;5.40;;
74074;SDS011;62428;51.412;5.432;2023-09-08T11:11:06;8.35;;;5.68;;
74074;SDS011;62428;51.412;5.432;2023-09-08T11:13:32;5.18;;;4.40;;
74074;SDS011;62428;51.412;5.432;2023-09-08T11:15:57;9.07;;;5.80;;
74074;SDS011;62428;51.412;5.432;2023-09-08T11:18:26;9.97;;;6.40;;
74074;SDS011;62428;51.412;5.432;2023-09-08T11:20:52;5.80;;;4.88;;
74074;SDS011;62428;51.412;5.432;2023-09-08T11:23:18;11.80;;;5.67;;
74074;SDS011;62428;51.412;5.432;2023-09-08T11:25:44;4.93;;;4.40;;
74074;SDS011;62428;51.412;5.432;2023-09-08T11:28:09;7.50;;;5.63;;
74074;SDS011;62428;51.412;5.432;2023-09-08T11:30:35;8.10;;;5.37;;
74074;SDS011;62428;51.412;5.432;2023-09-08T11:33:00;7.87;;;5.43;;
74074;SDS011;62428;51.412;5.432;2023-09-08T11:35:27;7.57;;;5.50;;
74074;SDS011;62428;51.412;5.432;2023-09-08T11:37:52;8.93;;;5.50;;
74074;SDS011;62428;51.412;5.432;2023-09-08T11:40:20;7.15;;;5.78;;
74074;SDS011;62428;51.412;5.432;2023-09-08T11:42:47;6.40;;;5.40;;
74074;SDS011;62428;51.412;5.432;2023-09-08T11:45:13;8.18;;;5.85;;
74074;SDS011;62428;51.412;5.432;2023-09-08T11:47:42;6.37;;;5.80;;
74074;SDS011;62428;51.412;5.432;2023-09-08T11:50:09;7.05;;;5.45;;
74074;SDS011;62428;51.412;5.432;2023-09-08T11:52:36;7.22;;;5.75;;
74074;SDS011;62428;51.412;5.432;2023-09-08T11:55:03;6.60;;;5.18;;
74074;SDS011;62428;51.412;5.432;2023-09-08T11:57:29;7.93;;;5.63;;
74074;SDS011;62428;51.412;5.432;2023-09-08T11:59:55;7.33;;;5.70;;
74074;SDS011;62428;51.412;5.432;2023-09-08T12:02:20;7.60;;;6.55;;
74074;SDS011;62428;51.412;5.432;2023-09-08T12:04:46;7.47;;;5.73;;
74074;SDS011;62428;51.412;5.432;2023-09-08T12:07:12;6.90;;;6.20;;
74074;SDS011;62428;51.412;5.432;2023-09-08T12:09:41;7.72;;;6.47;;
74074;SDS011;62428;51.412;5.432;2023-09-08T12:12:10;7.23;;;6.03;;
74074;SDS011;62428;51.412;5.432;2023-09-08T12:14:40;6.27;;;5.33;;
74074;SDS011;62428;51.412;5.432;2023-09-08T12:17:07;6.35;;;4.70;;
74074;SDS011;62428;51.412;5.432;2023-09-08T12:19:33;7.22;;;5.22;;
74074;SDS011;62428;51.412;5.432;2023-09-08T12:22:01;8.07;;;5.57;;
74074;SDS011;62428;51.412;5.432;2023-09-08T12:27:18;9.85;;;5.97;;
74074;SDS011;62428;51.412;5.432;2023-09-08T12:30:00;5.97;;;5.38;;
74074;SDS011;62428;51.412;5.432;2023-09-08T12:32:28;8.23;;;5.03;;
74074;SDS011;62428;51.412;5.432;2023-09-08T12:34:55;9.70;;;5.72;;
74074;SDS011;62428;51.412;5.432;2023-09-08T12:37:24;7.00;;;5.93;;
74074;SDS011;62428;51.412;5.432;2023-09-08T12:39:52;6.10;;;5.43;;
74074;SDS011;62428;51.412;5.432;2023-09-08T12:42:17;8.75;;;5.22;;
74074;SDS011;62428;51.412;5.432;2023-09-08T12:44:43;7.63;;;6.13;;
74074;SDS011;62428;51.412;5.432;2023-09-08T12:47:09;7.47;;;5.95;;
74074;SDS011;62428;51.412;5.432;2023-09-08T12:49:36;7.83;;;5.77;;
74074;SDS011;62428;51.412;5.432;2023-09-08T12:52:01;8.73;;;6.07;;
74074;SDS011;62428;51.412;5.432;2023-09-08T12:54:27;6.72;;;6.03;;
74074;SDS011;62428;51.412;5.432;2023-09-08T12:56:52;11.27;;;5.53;;
74074;SDS011;62428;51.412;5.432;2023-09-08T12:59:17;8.87;;;6.07;;
74074;SDS011;62428;51.412;5.432;2023-09-08T13:01:43;7.43;;;5.40;;
74074;SDS011;62428;51.412;5.432;2023-09-08T13:04:08;6.20;;;5.50;;
74074;SDS011;62428;51.412;5.432;2023-09-08T13:06:33;8.10;;;5.27;;
74074;SDS011;62428;51.412;5.432;2023-09-08T13:09:00;5.97;;;5.15;;
74074;SDS011;62428;51.412;5.432;2023-09-08T13:11:25;8.00;;;5.68;;
74074;SDS011;62428;51.412;5.432;2023-09-08T13:13:51;6.70;;;5.07;;
74074;SDS011;62428;51.412;5.432;2023-09-08T13:16:16;7.70;;;5.33;;
74074;SDS011;62428;51.412;5.432;2023-09-08T13:18:42;8.23;;;5.53;;
74074;SDS011;62428;51.412;5.432;2023-09-08T13:21:10;10.82;;;5.35;;
74074;SDS011;62428;51.412;5.432;2023-09-08T13:23:35;8.67;;;6.07;;
74074;SDS011;62428;51.412;5.432;2023-09-08T13:26:00;11.53;;;5.20;;
74074;SDS011;62428;51.412;5.432;2023-09-08T13:28:26;7.63;;;5.13;;
74074;SDS011;62428;51.412;5.432;2023-09-08T13:30:51;5.87;;;5.17;;
74074;SDS011;62428;51.412;5.432;2023-09-08T13:33:17;7.10;;;5.47;;
74074;SDS011;62428;51.412;5.432;2023-09-08T13:35:42;8.87;;;5.73;;
74074;SDS011;62428;51.412;5.432;2023-09-08T13:38:08;9.73;;;5.37;;
74074;SDS011;62428;51.412;5.432;2023-09-08T13:40:33;6.43;;;5.43;;
74074;SDS011;62428;51.412;5.432;2023-09-08T13:42:58;10.53;;;5.40;;
74074;SDS011;62428;51.412;5.432;2023-09-08T13:45:25;8.82;;;6.22;;
74074;SDS011;62428;51.412;5.432;2023-09-08T13:47:50;7.63;;;5.80;;
74074;SDS011;62428;51.412;5.432;2023-09-08T13:50:16;6.33;;;5.60;;
74074;SDS011;62428;51.412;5.432;2023-09-08T13:52:41;6.50;;;5.80;;
74074;SDS011;62428;51.412;5.432;2023-09-08T13:55:07;6.07;;;5.35;;
74074;SDS011;62428;51.412;5.432;2023-09-08T13:57:32;7.63;;;4.90;;
74074;SDS011;62428;51.412;5.432;2023-09-08T13:59:58;8.30;;;5.77;;
74074;SDS011;62428;51.412;5.432;2023-09-08T14:02:23;6.32;;;5.10;;
74074;SDS011;62428;51.412;5.432;2023-09-08T14:04:48;5.27;;;4.77;;
74074;SDS011;62428;51.412;5.432;2023-09-08T14:07:14;6.90;;;5.33;;
74074;SDS011;62428;51.412;5.432;2023-09-08T14:09:39;9.60;;;4.70;;
74074;SDS011;62428;51.412;5.432;2023-09-08T14:12:05;7.63;;;5.33;;
74074;SDS011;62428;51.412;5.432;2023-09-08T14:14:30;6.82;;;4.97;;
74074;SDS011;62428;51.412;5.432;2023-09-08T14:16:55;5.63;;;5.03;;
74074;SDS011;62428;51.412;5.432;2023-09-08T14:19:21;11.40;;;5.43;;
74074;SDS011;62428;51.412;5.432;2023-09-08T14:21:46;10.47;;;5.60;;
74074;SDS011;62428;51.412;5.432;2023-09-08T14:24:12;16.43;;;5.27;;
74074;SDS011;62428;51.412;5.432;2023-09-08T14:26:37;7.83;;;4.97;;
74074;SDS011;62428;51.412;5.432;2023-09-08T14:29:03;10.03;;;4.93;;
74074;SDS011;62428;51.412;5.432;2023-09-08T14:31:28;9.90;;;4.97;;
74074;SDS011;62428;51.412;5.432;2023-09-08T14:33:54;8.80;;;5.32;;
74074;SDS011;62428;51.412;5.432;2023-09-08T14:36:20;8.53;;;5.67;;
74074;SDS011;62428;51.412;5.432;2023-09-08T14:38:46;7.43;;;5.43;;
74074;SDS011;62428;51.412;5.432;2023-09-08T14:41:11;6.63;;;5.18;;
74074;SDS011;62428;51.412;5.432;2023-09-08T14:43:37;10.17;;;4.83;;
74074;SDS011;62428;51.412;5.432;2023-09-08T14:46:02;5.93;;;5.33;;
74074;SDS011;62428;51.412;5.432;2023-09-08T14:48:30;8.38;;;5.00;;